createdAt,value
2018-12-07T00:01:23.428Z,12.65
2018-12-07T00:03:51.532Z,12.70
2018-12-07T00:06:18.837Z,12.75
2018-12-07T00:08:46.186Z,12.95
2018-12-07T00:11:13.768Z,12.35
2018-12-07T00:13:41.137Z,12.80
2018-12-07T00:16:08.472Z,10.60
2018-12-07T00:18:40.783Z,11.45
2018-12-07T00:21:08.091Z,10.40
2018-12-07T00:23:41.638Z,11.63
2018-12-07T00:26:08.915Z,11.38
2018-12-07T00:28:36.321Z,11.18
2018-12-07T00:33:40.111Z,10.90
2018-12-07T00:44:19.552Z,11.12
2018-12-07T00:46:54.661Z,10.50
2018-12-07T00:49:22.132Z,10.25
2018-12-07T00:51:50.528Z,9.83
2018-12-07T00:54:18.082Z,9.85
2018-12-07T00:56:45.462Z,10.05
2018-12-07T00:59:12.824Z,9.18
2018-12-07T01:01:40.172Z,9.63
2018-12-07T01:04:18.043Z,9.23
2018-12-07T01:06:45.373Z,7.80
2018-12-07T01:09:12.723Z,8.75
2018-12-07T01:11:40.030Z,7.65
2018-12-07T01:14:07.496Z,6.70
2018-12-07T01:16:42.047Z,7.05
2018-12-07T01:19:09.491Z,8.30
2018-12-07T01:21:36.904Z,7.83
2018-12-07T01:24:04.226Z,7.35
2018-12-07T01:26:31.633Z,8.05
2018-12-07T01:28:59.052Z,6.42
2018-12-07T01:31:30.046Z,7.35
2018-12-07T01:33:57.464Z,7.00
2018-12-07T01:36:24.789Z,7.20
2018-12-07T01:38:52.176Z,7.47
2018-12-07T01:41:29.643Z,7.47
2018-12-07T01:46:24.092Z,6.75
2018-12-07T01:48:51.956Z,7.25
2018-12-07T01:51:19.380Z,7.50
2018-12-07T01:53:46.776Z,8.45
2018-12-07T01:56:14.168Z,8.40
2018-12-07T01:58:41.796Z,8.00
2018-12-07T02:01:09.188Z,8.33
2018-12-07T02:03:36.542Z,7.58
2018-12-07T02:06:04.069Z,8.30
2018-12-07T02:08:31.375Z,8.60
2018-12-07T02:10:58.864Z,7.90
2018-12-07T02:13:26.241Z,9.03
2018-12-07T02:21:24.465Z,7.12
2018-12-07T02:23:51.740Z,7.53
2018-12-07T02:26:19.260Z,6.50
2018-12-07T02:28:46.664Z,7.50
2018-12-07T02:31:14.080Z,7.20
2018-12-07T02:33:41.470Z,6.65
2018-12-07T02:47:29.905Z,7.92
2018-12-07T02:49:57.231Z,9.18
2018-12-07T02:52:24.561Z,8.13
2018-12-07T02:54:51.901Z,9.05
2018-12-07T02:57:19.208Z,8.78
2018-12-07T02:59:46.511Z,8.25
2018-12-07T03:02:15.851Z,8.03
2018-12-07T03:04:43.169Z,8.75
2018-12-07T03:07:10.480Z,8.25
2018-12-07T03:09:38.637Z,8.73
2018-12-07T03:12:05.996Z,7.85
2018-12-07T03:14:33.317Z,7.70
2018-12-07T03:17:15.313Z,8.48
2018-12-07T03:19:42.644Z,7.75
2018-12-07T03:22:10.039Z,9.05
2018-12-07T03:24:37.386Z,7.47
2018-12-07T03:27:04.713Z,8.05
2018-12-07T03:29:32.057Z,7.30
2018-12-07T03:31:59.383Z,7.83
2018-12-07T03:34:26.716Z,8.23
2018-12-07T03:36:55.008Z,7.72
2018-12-07T03:39:22.341Z,7.30
2018-12-07T03:41:49.777Z,6.95
2018-12-07T03:44:17.168Z,8.18
2018-12-07T03:46:44.577Z,7.92
2018-12-07T03:49:11.889Z,7.87
2018-12-07T03:51:39.221Z,8.88
2018-12-07T04:02:35.452Z,8.38
2018-12-07T04:05:03.940Z,9.43
2018-12-07T04:07:31.637Z,7.67
2018-12-07T04:09:59.047Z,7.92
2018-12-07T04:12:26.446Z,7.30
2018-12-07T04:14:53.719Z,6.87
2018-12-07T04:17:21.123Z,6.78
2018-12-07T04:19:48.436Z,7.37
2018-12-07T04:22:16.854Z,6.97
2018-12-07T04:24:44.188Z,7.28
2018-12-07T04:27:15.151Z,6.12
2018-12-07T04:29:42.507Z,7.10
2018-12-07T04:32:09.816Z,6.75
2018-12-07T04:34:37.157Z,7.17
2018-12-07T04:37:04.657Z,7.05
2018-12-07T04:39:32.145Z,6.62
2018-12-07T04:47:36.370Z,7.10
2018-12-07T04:50:10.869Z,6.15
2018-12-07T04:52:38.238Z,6.70
2018-12-07T04:55:05.844Z,6.67
2018-12-07T04:57:33.137Z,5.58
2018-12-07T05:00:00.477Z,5.83
2018-12-07T05:02:28.074Z,5.70
2018-12-07T05:04:55.460Z,6.20
2018-12-07T05:07:22.788Z,5.72
2018-12-07T05:09:50.299Z,5.37
2018-12-07T05:15:04.028Z,5.45
2018-12-07T05:17:32.402Z,5.92
2018-12-07T05:19:59.728Z,5.85
2018-12-07T05:22:27.111Z,5.45
2018-12-07T05:24:54.449Z,5.92
2018-12-07T05:27:25.716Z,5.58
2018-12-07T05:29:53.037Z,5.17
2018-12-07T05:32:20.342Z,5.20
2018-12-07T05:34:47.715Z,5.70
2018-12-07T05:37:15.123Z,4.67
2018-12-07T05:39:42.443Z,5.35
2018-12-07T05:50:39.247Z,4.20
2018-12-07T05:53:06.517Z,5.00
2018-12-07T05:55:33.952Z,5.33
2018-12-07T05:58:01.282Z,4.92
2018-12-07T06:00:28.580Z,4.53
2018-12-07T06:02:55.905Z,4.65
2018-12-07T06:05:23.352Z,4.62
2018-12-07T06:07:50.749Z,4.60
2018-12-07T06:10:21.246Z,5.00
2018-12-07T06:15:41.337Z,5.08
2018-12-07T06:18:12.513Z,5.87
2018-12-07T06:20:39.943Z,6.30
2018-12-07T06:23:07.252Z,5.80
2018-12-07T06:25:34.563Z,5.72
2018-12-07T06:28:01.892Z,7.05
2018-12-07T06:30:34.833Z,8.43
2018-12-07T06:33:02.133Z,10.05
2018-12-07T06:35:30.505Z,9.78
2018-12-07T06:37:57.804Z,10.30
2018-12-07T06:40:25.117Z,9.33
2018-12-07T06:42:52.393Z,8.35
2018-12-07T06:45:19.668Z,7.90
2018-12-07T06:47:46.970Z,7.58
2018-12-07T06:50:14.232Z,7.15
2018-12-07T06:52:46.770Z,6.40
2018-12-07T06:55:14.036Z,6.42
2018-12-07T06:57:41.350Z,6.75
2018-12-07T07:00:08.741Z,6.25
2018-12-07T07:02:39.173Z,6.28
2018-12-07T07:05:06.847Z,6.30
2018-12-07T07:07:34.282Z,6.33
2018-12-07T07:10:01.698Z,5.67
2018-12-07T07:12:29.308Z,5.92
2018-12-07T07:17:47.944Z,4.80
2018-12-07T07:20:15.352Z,5.20
2018-12-07T07:22:42.628Z,5.40
2018-12-07T07:25:09.947Z,5.25
2018-12-07T07:27:37.278Z,5.40
2018-12-07T07:30:05.830Z,5.15
2018-12-07T07:32:33.229Z,5.10
2018-12-07T07:35:00.557Z,4.70
2018-12-07T07:37:27.831Z,5.50
2018-12-07T07:39:55.235Z,5.83
2018-12-07T07:42:25.828Z,5.15
2018-12-07T07:44:53.128Z,4.95
2018-12-07T07:53:01.104Z,4.37
2018-12-07T07:55:28.398Z,4.78
2018-12-07T07:58:03.203Z,4.33
2018-12-07T08:00:30.465Z,3.60
2018-12-07T08:03:00.054Z,4.92
2018-12-07T08:05:27.124Z,4.22
2018-12-07T08:08:00.244Z,4.00
2018-12-07T08:10:27.527Z,4.42
2018-12-07T08:12:55.264Z,4.00
2018-12-07T08:15:22.549Z,4.22
2018-12-07T08:17:49.843Z,4.50
2018-12-07T08:20:19.143Z,4.33
2018-12-07T08:22:51.950Z,4.08
2018-12-07T08:25:19.209Z,3.80
2018-12-07T08:27:47.522Z,3.40
2018-12-07T08:30:14.825Z,3.65
2018-12-07T08:32:42.137Z,3.52
2018-12-07T08:35:09.561Z,3.02
2018-12-07T08:37:41.349Z,3.17
2018-12-07T08:40:08.942Z,2.90
2018-12-07T08:42:36.272Z,2.65
2018-12-07T08:45:04.521Z,2.90
2018-12-07T08:47:31.793Z,3.20
2018-12-07T08:49:59.100Z,3.30
2018-12-07T08:58:00.920Z,2.60
2018-12-07T09:00:28.296Z,2.15
2018-12-07T09:02:55.600Z,2.45
2018-12-07T09:05:29.225Z,2.75
2018-12-07T09:07:56.510Z,2.10
2018-12-07T09:10:33.489Z,2.25
2018-12-07T09:13:00.742Z,2.35
2018-12-07T09:15:28.041Z,1.90
2018-12-07T09:17:55.419Z,2.33
2018-12-07T09:20:22.724Z,2.17
2018-12-07T09:22:50.684Z,2.27
2018-12-07T09:25:17.994Z,2.25
2018-12-07T09:27:45.344Z,2.25
2018-12-07T09:30:12.681Z,2.05
2018-12-07T09:32:40.071Z,2.55
2018-12-07T09:35:07.375Z,2.20
2018-12-07T09:37:34.781Z,2.00
2018-12-07T09:40:02.193Z,2.47
2018-12-07T09:42:29.596Z,2.65
2018-12-07T09:44:56.864Z,2.17
2018-12-07T09:47:24.132Z,2.30
2018-12-07T09:49:51.404Z,2.25
2018-12-07T09:52:18.818Z,2.10
2018-12-07T09:54:46.119Z,2.33
2018-12-07T09:57:13.432Z,1.95
2018-12-07T10:02:26.391Z,1.90
2018-12-07T10:04:53.664Z,2.10
2018-12-07T10:07:21.086Z,2.00
2018-12-07T10:09:48.382Z,1.95
2018-12-07T10:12:15.796Z,2.15
2018-12-07T10:14:43.044Z,1.85
2018-12-07T10:17:11.428Z,1.90
2018-12-07T10:19:38.687Z,1.42
2018-12-07T10:22:06.057Z,1.70
2018-12-07T10:24:45.535Z,1.85
2018-12-07T10:27:12.809Z,2.37
2018-12-07T10:38:06.279Z,1.90
2018-12-07T10:40:33.673Z,2.10
2018-12-07T10:43:01.072Z,1.87
2018-12-07T10:45:28.513Z,2.00
2018-12-07T10:47:55.794Z,1.98
2018-12-07T10:50:23.125Z,1.90
2018-12-07T10:52:50.411Z,1.60
2018-12-07T10:55:24.571Z,1.87
2018-12-07T10:57:51.860Z,1.90
2018-12-07T11:00:24.434Z,1.60
2018-12-07T11:03:54.518Z,1.80
2018-12-07T11:07:25.718Z,1.67
2018-12-07T11:10:01.756Z,1.52
2018-12-07T11:12:34.509Z,1.60
2018-12-07T11:15:07.339Z,1.90
2018-12-07T11:17:40.045Z,1.80
2018-12-07T11:20:12.624Z,1.87
2018-12-07T11:22:45.453Z,1.67
2018-12-07T11:25:18.192Z,1.80
2018-12-07T11:27:50.940Z,1.60
2018-12-07T11:30:23.545Z,1.77
2018-12-07T11:32:56.250Z,2.40
2018-12-07T11:35:27.998Z,1.90
2018-12-07T11:37:55.334Z,1.80
2018-12-07T11:43:11.925Z,1.55
2018-12-07T11:45:39.225Z,1.62
2018-12-07T11:48:12.070Z,1.65
2018-12-07T11:50:39.341Z,1.80
2018-12-07T11:53:12.638Z,2.08
2018-12-07T11:55:39.889Z,1.50
2018-12-07T11:58:07.237Z,1.60
2018-12-07T12:00:34.507Z,1.80
2018-12-07T12:03:12.874Z,1.50
2018-12-07T12:05:40.144Z,1.30
2018-12-07T12:08:17.734Z,1.70
2018-12-07T12:10:45.035Z,1.80
2018-12-07T12:13:12.375Z,1.82
2018-12-07T12:18:25.211Z,1.95
2018-12-07T12:20:52.511Z,1.60
2018-12-07T12:23:25.996Z,1.75
2018-12-07T12:25:53.306Z,1.55
2018-12-07T12:28:33.669Z,1.60
2018-12-07T12:31:00.981Z,2.10
2018-12-07T12:33:28.470Z,1.47
2018-12-07T12:35:55.764Z,1.55
2018-12-07T12:41:15.118Z,1.50
2018-12-07T12:43:42.414Z,1.80
2018-12-07T12:46:09.704Z,1.35
2018-12-07T12:48:37.132Z,1.50
2018-12-07T12:51:04.554Z,1.40
2018-12-07T12:53:31.825Z,1.30
2018-12-07T12:56:02.371Z,1.32
2018-12-07T12:58:29.712Z,1.40
2018-12-07T13:00:57.317Z,1.20
2018-12-07T13:03:24.602Z,0.98
2018-12-07T13:05:58.984Z,1.20
2018-12-07T13:08:26.304Z,1.40
2018-12-07T13:19:16.037Z,1.20
2018-12-07T13:21:43.334Z,1.50
2018-12-07T13:24:15.744Z,1.10
2018-12-07T13:26:43.066Z,1.17
2018-12-07T13:29:10.392Z,1.05
2018-12-07T13:31:41.152Z,1.00
2018-12-07T13:34:08.466Z,1.12
2018-12-07T13:36:35.744Z,0.90
2018-12-07T13:39:07.697Z,0.90
2018-12-07T13:41:35.004Z,1.00
2018-12-07T13:44:02.460Z,0.90
2018-12-07T13:46:29.803Z,0.90
2018-12-07T13:48:57.370Z,1.10
2018-12-07T13:51:24.863Z,1.10
2018-12-07T13:53:57.783Z,1.37
2018-12-07T13:56:25.377Z,1.00
2018-12-07T13:58:52.791Z,0.88
2018-12-07T14:01:20.142Z,0.95
2018-12-07T14:03:47.607Z,1.12
2018-12-07T14:06:15.322Z,1.00
2018-12-07T14:08:42.942Z,1.07
2018-12-07T14:11:10.412Z,0.93
2018-12-07T14:13:37.922Z,1.00
2018-12-07T14:16:18.408Z,1.20
2018-12-07T14:18:45.825Z,0.90
2018-12-07T14:21:13.187Z,1.30
2018-12-07T14:23:40.748Z,1.10
2018-12-07T14:26:08.239Z,1.02
2018-12-07T14:28:35.659Z,1.05
2018-12-07T14:31:03.274Z,1.17
2018-12-07T14:33:30.660Z,1.22
2018-12-07T14:35:58.321Z,1.15
2018-12-07T14:38:25.771Z,1.10
2018-12-07T14:40:53.086Z,1.10
2018-12-07T14:43:20.771Z,1.00
2018-12-07T14:45:48.391Z,0.90
2018-12-07T14:48:15.886Z,0.80
2018-12-07T14:50:58.841Z,0.98
2018-12-07T14:53:26.379Z,1.00
2018-12-07T14:55:54.065Z,0.80
2018-12-07T14:58:33.785Z,1.05
2018-12-07T15:01:01.201Z,0.93
2018-12-07T15:03:29.908Z,0.95
2018-12-07T15:05:57.472Z,1.07
2018-12-07T15:08:24.979Z,1.10
2018-12-07T15:10:52.295Z,1.10
2018-12-07T15:13:23.982Z,1.00
2018-12-07T15:15:51.380Z,1.05
2018-12-07T15:18:18.864Z,0.90
2018-12-07T15:20:46.529Z,1.10
2018-12-07T15:23:14.098Z,0.90
2018-12-07T15:25:46.920Z,1.17
2018-12-07T15:28:24.598Z,1.00
2018-12-07T15:30:55.650Z,0.90
2018-12-07T15:33:23.293Z,0.82
2018-12-07T15:35:50.937Z,0.90
2018-12-07T15:38:18.342Z,1.07
2018-12-07T15:40:55.455Z,1.07
2018-12-07T15:43:23.095Z,0.80
2018-12-07T15:45:57.424Z,0.90
2018-12-07T15:48:24.891Z,0.80
2018-12-07T15:50:56.347Z,1.00
2018-12-07T15:53:23.718Z,0.80
2018-12-07T15:58:44.222Z,1.10
2018-12-07T16:01:11.645Z,1.10
2018-12-07T16:03:39.191Z,1.00
2018-12-07T16:06:06.789Z,0.90
2018-12-07T16:08:37.049Z,0.75
2018-12-07T16:11:04.642Z,0.80
2018-12-07T16:13:32.278Z,0.82
2018-12-07T16:15:59.765Z,1.00
2018-12-07T16:18:29.488Z,0.80
2018-12-07T16:20:56.911Z,0.90
2018-12-07T16:23:29.856Z,0.70
2018-12-07T16:25:57.292Z,0.85
2018-12-07T16:28:26.850Z,1.00
2018-12-07T16:30:54.271Z,0.90
2018-12-07T16:33:21.680Z,0.95
2018-12-07T16:35:49.222Z,0.80
2018-12-07T16:38:16.629Z,0.82
2018-12-07T16:40:44.078Z,1.05
2018-12-07T16:43:11.624Z,1.10
2018-12-07T16:45:39.275Z,1.27
2018-12-07T16:48:06.962Z,1.10
2018-12-07T16:50:36.365Z,1.07
2018-12-07T16:53:04.051Z,0.95
2018-12-07T16:55:31.763Z,1.10
2018-12-07T16:57:59.323Z,1.15
2018-12-07T17:00:26.732Z,1.15
2018-12-07T17:02:54.239Z,0.90
2018-12-07T17:05:21.762Z,1.05
2018-12-07T17:07:49.451Z,0.90
2018-12-07T17:10:17.122Z,0.93
2018-12-07T17:12:44.849Z,1.00
2018-12-07T17:15:16.897Z,1.00
2018-12-07T17:17:44.490Z,1.02
2018-12-07T17:20:19.072Z,0.98
2018-12-07T17:22:46.708Z,1.02
2018-12-07T17:25:14.236Z,1.20
2018-12-07T17:27:51.523Z,1.00
2018-12-07T17:30:19.035Z,1.02
2018-12-07T17:32:46.627Z,0.98
2018-12-07T17:35:14.274Z,1.10
2018-12-07T17:37:41.898Z,1.10
2018-12-07T17:40:09.634Z,1.10
2018-12-07T17:42:37.031Z,0.90
2018-12-07T17:45:04.945Z,1.12
2018-12-07T17:47:32.693Z,1.20
2018-12-07T17:50:00.330Z,1.20
2018-12-07T17:52:27.927Z,1.05
2018-12-07T17:55:00.452Z,1.32
2018-12-07T17:57:27.902Z,1.10
2018-12-07T17:59:55.351Z,0.90
2018-12-07T18:02:22.785Z,0.90
2018-12-07T18:04:50.643Z,1.10
2018-12-07T18:07:18.059Z,1.00
2018-12-07T18:09:45.461Z,1.10
2018-12-07T18:12:12.859Z,1.20
2018-12-07T18:14:51.725Z,1.10
2018-12-07T18:17:19.055Z,1.15
2018-12-07T18:19:46.466Z,1.30
2018-12-07T18:22:14.239Z,1.00
2018-12-07T18:24:49.904Z,0.88
2018-12-07T18:27:17.307Z,1.15
2018-12-07T18:29:56.993Z,1.30
2018-12-07T18:32:24.840Z,1.00
2018-12-07T18:34:53.416Z,1.00
2018-12-07T18:37:20.806Z,1.12
2018-12-07T18:39:50.339Z,1.10
2018-12-07T18:42:17.803Z,1.30
2018-12-07T18:44:45.387Z,1.10
2018-12-07T18:47:13.054Z,1.25
2018-12-07T18:49:40.625Z,1.02
2018-12-07T18:52:08.174Z,1.60
2018-12-07T18:54:35.696Z,1.20
2018-12-07T18:57:03.258Z,2.15
2018-12-07T18:59:30.851Z,1.80
2018-12-07T19:01:58.305Z,1.35
2018-12-07T19:04:29.951Z,1.27
2018-12-07T19:06:57.308Z,1.15
2018-12-07T19:09:24.876Z,1.60
2018-12-07T19:11:52.409Z,1.05
2018-12-07T19:14:19.869Z,1.47
2018-12-07T19:16:47.274Z,1.20
2018-12-07T19:22:00.580Z,1.85
2018-12-07T19:24:28.056Z,1.60
2018-12-07T19:26:55.405Z,2.42
2018-12-07T19:29:22.723Z,1.65
2018-12-07T19:31:50.406Z,1.60
2018-12-07T19:34:17.884Z,1.55
2018-12-07T19:36:45.548Z,1.98
2018-12-07T19:39:13.254Z,2.17
2018-12-07T19:41:40.869Z,2.30
2018-12-07T19:44:08.606Z,2.22
2018-12-07T19:46:36.113Z,1.30
2018-12-07T19:49:03.673Z,1.60
2018-12-07T19:51:44.652Z,1.40
2018-12-07T19:54:12.356Z,1.30
2018-12-07T19:56:39.810Z,1.25
2018-12-07T19:59:07.271Z,1.40
2018-12-07T20:01:34.681Z,1.55
2018-12-07T20:04:02.015Z,1.30
2018-12-07T20:06:29.503Z,1.50
2018-12-07T20:08:56.898Z,1.60
2018-12-07T20:11:24.196Z,1.50
2018-12-07T20:13:51.796Z,1.45
2018-12-07T20:16:19.425Z,1.62
2018-12-07T20:18:47.646Z,1.65
2018-12-07T20:21:15.090Z,1.65
2018-12-07T20:23:48.725Z,1.50
2018-12-07T20:26:16.005Z,1.80
2018-12-07T20:28:43.376Z,2.10
2018-12-07T20:31:10.699Z,1.80
2018-12-07T20:33:38.150Z,1.60
2018-12-07T20:36:05.751Z,1.32
2018-12-07T20:38:36.950Z,1.85
2018-12-07T20:41:04.383Z,1.55
2018-12-07T20:43:37.132Z,2.00
2018-12-07T20:46:04.620Z,1.75
2018-12-07T20:48:38.752Z,1.47
2018-12-07T20:51:06.289Z,1.67
2018-12-07T20:53:49.848Z,1.52
2018-12-07T20:56:17.184Z,1.65
2018-12-07T20:58:44.708Z,1.62
2018-12-07T21:01:12.951Z,2.10
2018-12-07T21:04:02.137Z,2.50
2018-12-07T21:06:40.807Z,2.10
2018-12-07T21:09:21.865Z,2.30
2018-12-07T21:11:52.239Z,2.05
2018-12-07T21:14:22.518Z,2.30
2018-12-07T21:17:01.691Z,2.83
2018-12-07T21:19:29.164Z,2.00
2018-12-07T21:21:57.129Z,3.20
2018-12-07T21:32:52.774Z,2.90
2018-12-07T21:35:21.421Z,3.90
2018-12-07T21:37:48.691Z,3.20
2018-12-07T21:40:18.584Z,3.30
2018-12-07T21:42:45.994Z,4.12
2018-12-07T21:45:13.543Z,3.60
2018-12-07T21:47:58.711Z,3.52
2018-12-07T21:50:26.254Z,5.12
2018-12-07T21:52:55.423Z,4.17
2018-12-07T21:55:22.999Z,5.17
2018-12-07T21:57:50.483Z,4.75
2018-12-07T22:00:17.922Z,4.80
2018-12-07T22:02:49.322Z,5.28
2018-12-07T22:05:16.915Z,4.60
2018-12-07T22:07:44.460Z,5.10
2018-12-07T22:10:11.864Z,5.15
2018-12-07T22:12:39.487Z,3.65
2018-12-07T22:15:07.401Z,3.10
2018-12-07T22:17:35.039Z,3.10
2018-12-07T22:20:04.629Z,3.25
2018-12-07T22:22:32.227Z,4.10
2018-12-07T22:25:02.121Z,2.83
2018-12-07T22:27:29.819Z,3.40
2018-12-07T22:30:02.145Z,3.35
2018-12-07T22:32:29.571Z,3.55
2018-12-07T22:34:57.192Z,3.75
2018-12-07T22:37:24.844Z,3.60
2018-12-07T22:39:52.561Z,3.35
2018-12-07T22:42:20.315Z,3.17
2018-12-07T22:44:47.827Z,3.20
2018-12-07T22:47:15.575Z,3.05
2018-12-07T22:49:43.000Z,3.98
2018-12-07T22:52:14.487Z,3.70
2018-12-07T22:54:41.818Z,3.45
2018-12-07T22:57:16.128Z,3.37
2018-12-07T22:59:43.442Z,3.80
2018-12-07T23:02:11.113Z,2.77
2018-12-07T23:04:45.031Z,3.25
2018-12-07T23:07:12.438Z,2.42
2018-12-07T23:12:25.914Z,2.40
2018-12-07T23:14:53.216Z,2.25
2018-12-07T23:17:20.724Z,3.20
2018-12-07T23:19:48.033Z,3.35
2018-12-07T23:22:15.814Z,3.80
2018-12-07T23:24:43.141Z,3.50
2018-12-07T23:27:10.468Z,3.22
2018-12-07T23:29:37.797Z,2.95
2018-12-07T23:32:05.250Z,3.50
2018-12-07T23:34:32.576Z,3.70
2018-12-07T23:36:59.865Z,3.65
2018-12-07T23:39:30.999Z,4.05
2018-12-07T23:41:58.293Z,5.22
2018-12-07T23:44:25.759Z,4.72
2018-12-07T23:46:53.125Z,5.45
2018-12-07T23:49:20.482Z,4.17
2018-12-07T23:51:52.185Z,5.30
2018-12-07T23:54:19.859Z,5.05
2018-12-07T23:56:47.466Z,4.95
2018-12-07T23:59:14.863Z,4.33
